Time;durP1;ratioP1;P1;durP2;ratioP2;P2;SDS_P1;SDS_P2;PMS_P1;PMS_P2;Temp;Humidity;BMP_temperature;BMP_pressure;BME280_temperature;BME280_humidity;BME280_pressure;Samples;Min_cycle;Max_cycle;Signal;HPM_P1;HPM_P2
2021/10/28 00:16:33;;;;;;;337.95;18.90;;;;;;;9.01;67.24;100515.34;10384800;28;20397;-66
2021/10/28 00:21:37;;;;;;;287.40;18.17;;;;;;;8.98;67.23;100504.16;10386065;28;20497;-66
2021/10/28 00:26:41;;;;;;;326.38;20.75;;;;;;;8.93;67.35;100499.19;10384478;28;20134;-66
2021/10/28 00:31:45;;;;;;;323.13;20.80;;;;;;;8.88;67.47;100510.72;10385479;28;20061;-66
2021/10/28 00:36:49;;;;;;;478.85;25.75;;;;;;;8.80;67.62;100500.63;10385541;28;20151;-66
2021/10/28 00:41:51;;;;;;;601.70;29.58;;;;;;;8.74;68.13;100499.13;10386753;28;20494;-65
2021/10/28 00:46:53;;;;;;;521.45;37.15;;;;;;;8.72;68.38;100495.75;10383074;28;20052;-65
2021/10/28 00:51:55;;;;;;;331.63;26.83;;;;;;;8.71;68.30;100495.78;10384401;28;20076;-65
2021/10/28 00:56:57;;;;;;;388.38;24.60;;;;;;;8.71;68.67;100498.38;10383630;28;20045;-65
2021/10/28 01:01:59;;;;;;;451.70;38.53;;;;;;;8.75;68.43;100492.16;10384607;28;20053;-65
2021/10/28 01:07:01;;;;;;;247.85;19.00;;;;;;;8.65;68.53;100501.25;10384698;28;20049;-65
2021/10/28 01:12:04;;;;;;;312.20;25.20;;;;;;;8.61;68.62;100490.13;10383956;28;20780;-65
2021/10/28 01:17:06;;;;;;;185.18;15.27;;;;;;;8.73;68.73;100494.81;10383563;28;20500;-65
2021/10/28 01:22:07;;;;;;;547.28;38.40;;;;;;;8.81;68.41;100490.09;10379388;28;20038;-65
2021/10/28 01:27:09;;;;;;;362.95;26.33;;;;;;;8.82;68.49;100499.66;10382904;28;20059;-65
2021/10/28 01:32:11;;;;;;;369.88;24.98;;;;;;;8.82;68.60;100486.59;10382469;28;20288;-65
2021/10/28 01:37:15;;;;;;;426.83;31.33;;;;;;;8.78;68.48;100484.19;10377581;28;20168;-65
2021/10/28 01:42:17;;;;;;;172.85;16.30;;;;;;;8.70;68.50;100475.84;10381845;28;20939;-65
2021/10/28 01:47:19;;;;;;;302.00;27.63;;;;;;;8.71;68.73;100478.38;10383246;28;20065;-64
2021/10/28 01:52:21;;;;;;;330.05;28.13;;;;;;;8.71;68.62;100469.72;10381322;28;20144;-65
2021/10/28 01:57:23;;;;;;;354.98;24.63;;;;;;;8.67;68.57;100462.94;10381321;28;20061;-65
2021/10/28 02:02:25;;;;;;;350.67;19.63;;;;;;;8.47;68.87;100455.97;10384910;28;20065;-65
2021/10/28 02:07:27;;;;;;;291.65;16.20;;;;;;;8.23;68.94;100464.84;10387890;28;20092;-65
2021/10/28 02:12:28;;;;;;;309.35;20.30;;;;;;;8.19;69.19;100452.00;10388230;28;20304;-64
2021/10/28 02:17:30;;;;;;;334.90;23.35;;;;;;;8.05;69.61;100442.13;10389615;28;20060;-64
2021/10/28 02:22:32;;;;;;;395.70;22.73;;;;;;;8.08;69.64;100449.81;10389004;28;20526;-64
2021/10/28 02:27:34;;;;;;;376.85;24.67;;;;;;;7.99;69.69;100448.44;10390298;28;20141;-65
2021/10/28 02:32:36;;;;;;;298.67;24.70;;;;;;;7.86;69.63;100431.63;10387995;28;20060;-64
2021/10/28 02:37:38;;;;;;;391.98;33.15;;;;;;;7.72;69.92;100446.09;10386559;28;20358;-65
2021/10/28 02:42:40;;;;;;;179.65;15.63;;;;;;;7.87;69.81;100435.06;10389507;28;20303;-65
2021/10/28 02:47:42;;;;;;;213.52;16.25;;;;;;;7.94;69.92;100428.69;10389150;28;20045;-64
2021/10/28 02:52:44;;;;;;;602.33;39.60;;;;;;;7.90;69.52;100430.56;10388409;28;20513;-65
2021/10/28 02:57:46;;;;;;;125.05;13.35;;;;;;;7.95;70.00;100419.97;10392157;28;20053;-65
2021/10/28 03:02:48;;;;;;;331.60;17.17;;;;;;;8.00;69.48;100426.69;10393862;28;20046;-65
2021/10/28 03:07:51;;;;;;;603.78;31.30;;;;;;;7.75;69.76;100418.16;10391465;28;20068;-64
2021/10/28 03:12:54;;;;;;;473.25;23.83;;;;;;;7.61;70.26;100420.47;10388068;28;20045;-65
2021/10/28 03:28:27;;;;;;;374.73;29.25;;;;;;;8.03;69.87;100410.94;10389065;28;20088;-66
2021/10/28 03:33:29;;;;;;;337.65;24.20;;;;;;;7.94;69.57;100408.72;10386934;28;20060;-65
2021/10/28 03:38:43;;;;;;;369.65;22.45;;;;;;;7.87;69.59;100411.63;10388313;28;20049;-65
2021/10/28 04:30:31;;;;;;;258.63;21.50;;;;;;;7.35;69.96;100389.44;10384806;28;20049;-66
2021/10/28 04:35:32;;;;;;;291.23;26.33;;;;;;;7.33;69.84;100391.25;10384769;28;20041;-66
2021/10/28 04:40:34;;;;;;;258.88;17.55;;;;;;;7.17;69.95;100388.41;10383757;28;20057;-66
2021/10/28 04:45:36;;;;;;;240.50;19.02;;;;;;;6.92;70.44;100390.25;10386091;28;20049;-66
2021/10/28 04:50:37;;;;;;;553.33;26.75;;;;;;;6.95;70.38;100392.75;10386045;28;20042;-66
2021/10/28 04:55:39;;;;;;;466.38;28.30;;;;;;;7.02;70.30;100385.56;10386041;28;20120;-65
2021/10/28 05:00:41;;;;;;;153.43;14.57;;;;;;;7.14;70.21;100385.91;10382614;28;20057;-66
2021/10/28 05:05:44;;;;;;;420.52;28.15;;;;;;;7.17;69.88;100382.34;10384278;28;20068;-66
2021/10/28 05:10:45;;;;;;;435.90;26.17;;;;;;;7.05;69.79;100385.44;10383954;28;20050;-66
2021/10/28 05:15:49;;;;;;;522.20;37.13;;;;;;;6.94;70.05;100379.78;10384328;28;20053;-65
2021/10/28 05:20:52;;;;;;;335.35;23.33;;;;;;;6.99;70.16;100376.13;10384103;28;20053;-66
2021/10/28 05:25:54;;;;;;;265.92;22.38;;;;;;;7.04;70.20;100374.16;10384905;28;20425;-66
2021/10/28 05:30:55;;;;;;;382.38;25.92;;;;;;;7.28;69.92;100372.38;10382373;28;20041;-66
2021/10/28 05:35:57;;;;;;;342.50;18.05;;;;;;;7.45;69.49;100369.94;10383184;28;20050;-66
2021/10/28 05:40:59;;;;;;;333.85;25.52;;;;;;;7.14;69.32;100367.69;10383413;28;20063;-66
2021/10/28 05:46:01;;;;;;;255.50;17.13;;;;;;;6.98;69.36;100373.53;10362919;28;20072;-66
2021/10/28 05:51:03;;;;;;;272.90;23.20;;;;;;;6.72;69.84;100363.28;10382655;28;20188;-66
2021/10/28 05:56:05;;;;;;;311.35;25.75;;;;;;;6.71;70.01;100370.25;10383942;28;20065;-66
2021/10/28 06:01:06;;;;;;;215.32;19.05;;;;;;;6.79;70.32;100372.56;10383248;28;20056;-66
2021/10/28 06:06:08;;;;;;;281.38;22.08;;;;;;;7.01;69.77;100370.84;10381274;28;20521;-66
2021/10/28 06:11:10;;;;;;;386.98;26.50;;;;;;;7.08;69.47;100364.53;10383404;28;20049;-67
2021/10/28 06:16:13;;;;;;;419.20;25.17;;;;;;;6.86;69.36;100361.00;10384397;28;20066;-66
2021/10/28 06:21:17;;;;;;;374.45;20.90;;;;;;;6.61;69.99;100361.09;10383113;28;20203;-66
2021/10/28 06:26:18;;;;;;;426.67;27.48;;;;;;;6.83;69.95;100358.56;10381710;28;20780;-66
2021/10/28 06:31:23;;;;;;;320.25;25.83;;;;;;;6.88;69.50;100359.19;10382688;28;20136;-66
2021/10/28 06:36:26;;;;;;;226.48;19.95;;;;;;;6.95;69.52;100355.47;10391609;28;20420;-67
2021/10/28 06:41:29;;;;;;;597.55;33.33;;;;;;;6.81;69.03;100357.75;10391341;28;20496;-66
2021/10/28 06:46:33;;;;;;;556.10;30.23;;;;;;;6.50;69.68;100354.59;10392367;28;20053;-67
2021/10/28 06:51:38;;;;;;;487.92;24.20;;;;;;;6.53;69.82;100362.28;10391910;28;20067;-67
2021/10/28 07:07:03;;;;;;;651.10;34.57;;;;;;;6.71;69.05;100351.22;10390152;28;20553;-66
2021/10/28 07:22:40;;;;;;;295.52;20.80;;;;;;;6.88;68.80;100349.66;10390407;28;20557;-65
2021/10/28 07:59:35;;;;;;;329.95;24.80;;;;;;;7.07;68.29;100355.00;10388159;28;20327;-66
2021/10/28 08:15:49;;;;;;;348.70;22.67;;;;;;;7.19;68.16;100346.72;10378015;28;20057;-66
2021/10/28 08:21:27;;;;;;;387.40;24.38;;;;;;;7.49;67.78;100342.91;10386169;28;20510;-66
2021/10/28 08:31:27;;;;;;;232.40;16.38;;;;;;;7.54;67.35;100343.56;10386072;28;20053;-66
2021/10/28 08:36:31;;;;;;;435.33;24.80;;;;;;;7.44;67.52;100344.00;10386660;28;20050;-66
2021/10/28 08:41:35;;;;;;;286.13;21.83;;;;;;;7.45;67.92;100345.72;10384025;28;20057;-76
2021/10/28 08:46:41;;;;;;;520.88;31.02;;;;;;;7.75;67.19;100336.63;10384569;28;20414;-78
2021/10/28 09:45:06;;;;;;;105.15;20.30;;;;;;;8.12;66.90;100307.28;10384705;28;20178;-72
2021/10/28 09:50:12;;;;;;;111.15;18.38;;;;;;;8.00;66.82;100303.41;10383166;28;20069;-76
2021/10/28 10:00:39;;;;;;;77.63;19.88;;;;;;;7.90;67.00;100300.38;10384911;28;20490;-77
2021/10/28 10:05:43;;;;;;;65.43;21.75;;;;;;;7.94;67.22;100303.69;10386508;28;20057;-77
2021/10/28 10:10:45;;;;;;;63.40;22.58;;;;;;;8.01;67.43;100305.97;10393911;28;20057;-76
2021/10/28 10:15:49;;;;;;;35.80;20.55;;;;;;;8.18;67.18;100291.41;10393497;28;20063;-76
2021/10/28 11:20:58;;;;;;;41.10;27.50;;;;;;;9.90;65.05;100239.50;10369191;28;20083;-75
2021/10/28 12:25:12;;;;;;;43.88;30.52;;;;;;;10.43;64.38;100161.69;10388876;28;20060;-79
2021/10/28 12:52:04;;;;;;;44.03;31.58;;;;;;;9.79;64.81;100141.75;10386579;28;20156;-78
2021/10/28 13:02:59;;;;;;;44.97;29.75;;;;;;;9.98;64.62;100118.91;10385345;28;20053;-79
2021/10/28 13:35:34;;;;;;;51.57;31.07;;;;;;;9.93;64.68;100085.19;10384597;28;20049;-77
2021/10/28 15:31:42;;;;;;;38.88;23.85;;;;;;;8.63;67.28;100047.69;10389351;28;19951;-78
2021/10/28 15:47:24;;;;;;;37.35;24.08;;;;;;;8.80;66.54;100057.28;10389833;28;20053;-80
2021/10/28 15:57:50;;;;;;;34.55;22.63;;;;;;;8.59;66.53;100053.13;10389173;28;20045;-79
2021/10/28 16:24:27;;;;;;;35.95;23.05;;;;;;;8.39;66.82;100066.28;10388090;28;20053;-78
2021/10/28 16:29:29;;;;;;;33.97;22.15;;;;;;;8.34;67.05;100066.53;10388354;28;20128;-78
2021/10/28 16:34:31;;;;;;;35.50;22.98;;;;;;;8.45;66.71;100066.00;10385645;28;20132;-78
2021/10/28 16:39:33;;;;;;;35.80;21.92;;;;;;;8.57;66.51;100065.38;10387455;28;20484;-79
2021/10/28 16:44:35;;;;;;;37.70;24.05;;;;;;;8.44;66.76;100054.75;10385629;28;20052;-79
2021/10/28 16:49:37;;;;;;;36.28;22.98;;;;;;;8.44;66.69;100048.69;10387509;28;20600;-78
2021/10/28 16:54:39;;;;;;;35.10;23.27;;;;;;;8.40;66.78;100052.38;10386037;28;20148;-79
2021/10/28 16:59:41;;;;;;;35.63;23.27;;;;;;;8.51;66.57;100058.72;10384784;28;20053;-79
2021/10/28 17:04:43;;;;;;;38.47;23.65;;;;;;;8.55;66.67;100052.44;10386398;28;20065;-79
2021/10/28 17:09:45;;;;;;;36.97;23.52;;;;;;;8.62;66.52;100048.63;10387748;28;20060;-78
2021/10/28 17:14:49;;;;;;;34.28;22.38;;;;;;;8.65;66.62;100047.59;10385449;28;20140;-79
2021/10/28 17:19:50;;;;;;;31.48;21.13;;;;;;;8.66;66.27;100044.09;10385588;28;20079;-78
2021/10/28 17:24:52;;;;;;;34.60;21.73;;;;;;;8.68;65.97;100030.06;10386379;28;20045;-80
2021/10/28 17:29:54;;;;;;;31.95;21.48;;;;;;;8.48;66.18;100032.84;10386977;28;20490;-78
2021/10/28 17:34:57;;;;;;;30.52;20.63;;;;;;;8.43;66.33;100029.59;10384933;28;20053;-67
2021/10/28 17:39:59;;;;;;;29.58;20.98;;;;;;;8.53;65.94;100036.03;10384324;28;20053;-67
2021/10/28 17:45:01;;;;;;;29.20;19.77;;;;;;;8.58;66.16;100046.25;10380666;28;20495;-67
2021/10/28 17:50:04;;;;;;;29.80;20.67;;;;;;;8.79;65.76;100045.19;10385539;28;20221;-67
2021/10/28 17:55:10;;;;;;;26.77;19.40;;;;;;;8.94;65.46;100040.91;10384019;28;20128;-66
2021/10/28 18:00:13;;;;;;;31.15;22.98;;;;;;;9.00;65.17;100023.19;10385671;28;20061;-67
2021/10/28 18:05:15;;;;;;;32.45;22.63;;;;;;;9.16;64.65;100023.22;10385447;28;20136;-67
2021/10/28 18:10:18;;;;;;;30.52;21.92;;;;;;;9.22;64.73;100023.75;10385258;28;20053;-67
2021/10/28 18:15:19;;;;;;;34.60;22.70;;;;;;;9.22;64.73;100025.53;10383598;28;20143;-67
2021/10/28 18:20:21;;;;;;;29.38;20.55;;;;;;;9.29;64.37;100024.28;10385701;28;20061;-67
2021/10/28 18:25:24;;;;;;;29.40;20.13;;;;;;;9.16;64.71;100029.28;10384148;28;20049;-67
2021/10/28 18:30:36;;;;;;;27.38;19.15;;;;;;;9.15;64.97;100019.81;10391008;28;20140;-67
2021/10/28 18:35:40;;;;;;;38.83;24.85;;;;;;;8.99;65.36;100015.47;10393648;28;20049;-67
2021/10/28 18:40:41;;;;;;;33.47;23.17;;;;;;;9.06;65.51;100006.38;10391873;28;20058;-67
2021/10/28 18:45:44;;;;;;;32.17;22.40;;;;;;;9.10;65.40;100005.28;10390886;28;20140;-67
2021/10/28 18:50:47;;;;;;;37.20;21.85;;;;;;;9.04;65.53;100001.25;10392688;28;20045;-67
2021/10/28 18:55:48;;;;;;;33.38;23.52;;;;;;;8.94;65.70;100005.25;10392472;28;20076;-67
2021/10/28 19:00:50;;;;;;;33.28;22.60;;;;;;;8.93;65.94;100005.34;10392058;28;20049;-68
2021/10/28 19:05:54;;;;;;;37.88;23.60;;;;;;;8.98;65.99;100005.94;10391475;28;20104;-67
2021/10/28 19:10:56;;;;;;;33.30;22.35;;;;;;;9.13;65.84;100003.38;10389660;28;20041;-67
2021/10/28 19:15:58;;;;;;;34.88;21.02;;;;;;;9.27;65.39;100006.09;10388558;28;20067;-68
2021/10/28 19:21:02;;;;;;;35.13;23.38;;;;;;;9.15;65.64;99993.72;10388911;28;20136;-65
2021/10/28 19:26:04;;;;;;;36.38;24.60;;;;;;;9.22;65.71;99983.78;10390621;28;20536;-65
2021/10/28 19:31:13;;;;;;;36.78;23.88;;;;;;;9.30;65.51;99977.22;10390381;28;20055;-68
2021/10/28 19:36:26;;;;;;;39.65;24.55;;;;;;;9.21;65.67;99964.69;10390843;28;20136;-67
2021/10/28 19:46:29;;;;;;;36.40;23.92;;;;;;;9.07;66.12;99961.97;10391037;28;20416;-68
2021/10/28 19:51:31;;;;;;;39.03;25.23;;;;;;;9.06;66.19;99965.47;10388902;28;20056;-67
2021/10/28 19:56:33;;;;;;;36.78;24.30;;;;;;;9.11;66.08;99957.41;10387737;28;20054;-68
2021/10/28 20:06:52;;;;;;;39.35;24.88;;;;;;;8.93;66.68;99948.81;10389965;28;20100;-67
2021/10/28 20:22:39;;;;;;;38.97;24.83;;;;;;;9.09;66.72;99938.41;10387835;28;20156;-68
2021/10/28 20:27:42;;;;;;;42.28;25.85;;;;;;;9.11;66.39;99941.75;10388228;28;21054;-68
2021/10/28 20:32:44;;;;;;;41.40;26.95;;;;;;;9.08;66.53;99937.53;10388004;28;20488;-67
2021/10/28 20:37:47;;;;;;;42.92;26.60;;;;;;;9.03;66.80;99936.13;10388621;28;20047;-68
2021/10/28 20:42:49;;;;;;;44.05;28.08;;;;;;;8.98;66.99;99933.75;10387224;28;20053;-68
2021/10/28 20:47:52;;;;;;;45.30;29.10;;;;;;;9.04;66.81;99933.41;10389152;28;20046;-68
2021/10/28 20:52:55;;;;;;;43.30;28.40;;;;;;;9.03;66.82;99933.50;10385821;28;20096;-68
2021/10/28 20:57:57;;;;;;;47.78;29.48;;;;;;;9.07;66.88;99919.38;10386504;28;20410;-68
2021/10/28 21:02:59;;;;;;;50.92;29.00;;;;;;;9.11;66.67;99926.97;10386370;28;20057;-68
2021/10/28 21:08:01;;;;;;;52.95;29.92;;;;;;;9.19;66.69;99924.78;10387481;28;20073;-68
2021/10/28 21:13:03;;;;;;;51.10;30.80;;;;;;;9.15;66.76;99923.25;10386785;28;20060;-68
2021/10/28 21:18:07;;;;;;;53.20;31.20;;;;;;;9.14;66.75;99916.34;10377767;28;20084;-67
2021/10/28 21:23:08;;;;;;;52.20;31.30;;;;;;;9.02;66.99;99911.78;10382474;28;20584;-68
2021/10/28 21:28:10;;;;;;;55.28;32.50;;;;;;;9.06;67.17;99918.53;10383147;28;20567;-68
2021/10/28 21:33:15;;;;;;;54.85;32.35;;;;;;;9.03;67.27;99925.69;10383910;28;20045;-68
2021/10/28 21:38:18;;;;;;;71.32;35.25;;;;;;;9.24;67.03;99912.31;10384036;28;20134;-68
2021/10/28 21:43:20;;;;;;;65.90;34.70;;;;;;;9.34;66.81;99910.88;10383320;28;20198;-68
2021/10/28 21:48:22;;;;;;;57.00;32.25;;;;;;;9.20;67.01;99889.91;10381895;28;20646;-67
2021/10/28 21:53:35;;;;;;;62.45;33.80;;;;;;;9.13;67.15;99875.53;10383189;28;20050;-67
2021/10/28 22:04:18;;;;;;;69.68;36.22;;;;;;;9.06;67.59;99882.00;10380881;28;20057;-68
2021/10/28 22:25:21;;;;;;;73.03;37.27;;;;;;;9.08;67.82;99874.94;10383479;28;20049;-68
2021/10/28 22:30:23;;;;;;;72.57;37.70;;;;;;;8.94;67.97;99867.03;10384350;28;20275;-67
2021/10/28 22:35:55;;;;;;;74.68;37.08;;;;;;;8.96;68.16;99870.38;10382966;28;20414;-68
2021/10/28 22:40:52;;;;;;;81.28;38.75;;;;;;;9.04;68.01;99862.13;10383492;28;20060;-67
2021/10/28 22:45:54;;;;;;;81.35;39.75;;;;;;;8.94;68.23;99860.94;10382751;28;20080;-68
2021/10/28 22:50:56;;;;;;;88.35;42.85;;;;;;;8.86;68.45;99848.34;10383102;28;20060;-67
2021/10/28 22:55:59;;;;;;;84.38;43.22;;;;;;;8.89;68.31;99856.00;10381554;28;20052;-67
2021/10/28 23:01:18;;;;;;;99.80;46.50;;;;;;;8.79;68.46;99852.22;10384166;28;20065;-68
2021/10/28 23:21:51;;;;;;;85.85;41.03;;;;;;;8.49;68.96;99846.00;10390596;28;20057;-67
2021/10/28 23:26:53;;;;;;;102.38;42.70;;;;;;;8.31;69.10;99844.34;10391457;28;20050;-67
2021/10/28 23:31:54;;;;;;;109.45;46.60;;;;;;;8.43;69.11;99838.50;10387661;28;20116;-68
2021/10/28 23:36:56;;;;;;;98.25;44.70;;;;;;;8.38;69.14;99845.72;10389304;28;20076;-67
2021/10/28 23:41:58;;;;;;;94.82;42.58;;;;;;;8.55;68.87;99828.28;10387862;28;20377;-68
2021/10/28 23:47:00;;;;;;;90.97;40.85;;;;;;;8.77;68.43;99825.38;10388317;28;20053;-68
2021/10/28 23:52:02;;;;;;;112.90;47.00;;;;;;;8.69;68.37;99827.53;10388918;28;20497;-67
2021/10/28 23:57:03;;;;;;;79.50;39.85;;;;;;;8.69;68.57;99820.56;10387183;28;20076;-68
